sensor_id;sensor_type;location;lat;lon;timestamp;pressure;altitude;pressure_sealevel;temperature;humidity
7930;BME280;4010;42.698;23.124;2024-03-08T00:01:43;118349.16;;;-140.64;100.00
7930;BME280;4010;42.698;23.124;2024-03-08T00:04:11;118349.16;;;-140.64;100.00
7930;BME280;4010;42.698;23.124;2024-03-08T00:06:39;118349.16;;;-140.64;100.00
7930;BME280;4010;42.698;23.124;2024-03-08T00:09:06;118349.16;;;-140.64;100.00
7930;BME280;4010;42.698;23.124;2024-03-08T00:11:34;118349.16;;;-140.64;100.00
7930;BME280;4010;42.698;23.124;2024-03-08T00:14:01;118349.16;;;-140.64;100.00
7930;BME280;4010;42.698;23.124;2024-03-08T00:16:32;118349.16;;;-140.64;100.00
7930;BME280;4010;42.698;23.124;2024-03-08T00:18:58;118349.16;;;-140.64;100.00
7930;BME280;4010;42.698;23.124;2024-03-08T00:21:25;118349.16;;;-140.64;100.00
7930;BME280;4010;42.698;23.124;2024-03-08T00:23:54;118349.16;;;-140.64;100.00
7930;BME280;4010;42.698;23.124;2024-03-08T00:26:21;118349.16;;;-140.64;100.00
7930;BME280;4010;42.698;23.124;2024-03-08T00:28:48;118349.16;;;-140.64;100.00
7930;BME280;4010;42.698;23.124;2024-03-08T00:31:15;118349.16;;;-140.64;100.00
7930;BME280;4010;42.698;23.124;2024-03-08T00:33:42;118349.16;;;-140.64;100.00
7930;BME280;4010;42.698;23.124;2024-03-08T00:36:09;118349.16;;;-140.64;100.00
7930;BME280;4010;42.698;23.124;2024-03-08T00:38:35;118349.16;;;-140.64;100.00
7930;BME280;4010;42.698;23.124;2024-03-08T00:41:03;118349.16;;;-140.64;100.00
7930;BME280;4010;42.698;23.124;2024-03-08T00:43:30;118349.16;;;-140.64;100.00
7930;BME280;4010;42.698;23.124;2024-03-08T00:45:57;118349.16;;;-140.64;100.00
7930;BME280;4010;42.698;23.124;2024-03-08T00:48:24;118349.16;;;-140.64;100.00
7930;BME280;4010;42.698;23.124;2024-03-08T00:50:50;118349.16;;;-140.64;100.00
7930;BME280;4010;42.698;23.124;2024-03-08T00:53:18;118349.16;;;-140.64;100.00
7930;BME280;4010;42.698;23.124;2024-03-08T00:55:44;118349.16;;;-140.64;100.00
7930;BME280;4010;42.698;23.124;2024-03-08T00:58:13;118349.16;;;-140.64;100.00
7930;BME280;4010;42.698;23.124;2024-03-08T01:00:40;118349.16;;;-140.64;100.00
7930;BME280;4010;42.698;23.124;2024-03-08T01:03:06;118349.16;;;-140.64;100.00
7930;BME280;4010;42.698;23.124;2024-03-08T01:05:33;118349.16;;;-140.64;100.00
7930;BME280;4010;42.698;23.124;2024-03-08T01:08:00;118349.16;;;-140.64;100.00
7930;BME280;4010;42.698;23.124;2024-03-08T01:10:28;118349.16;;;-140.64;100.00
7930;BME280;4010;42.698;23.124;2024-03-08T01:12:55;118349.16;;;-140.64;100.00
7930;BME280;4010;42.698;23.124;2024-03-08T01:15:23;118349.16;;;-140.64;100.00
7930;BME280;4010;42.698;23.124;2024-03-08T01:17:50;118349.16;;;-140.64;100.00
7930;BME280;4010;42.698;23.124;2024-03-08T01:20:17;118349.16;;;-140.64;100.00
7930;BME280;4010;42.698;23.124;2024-03-08T01:22:43;118349.16;;;-140.64;100.00
7930;BME280;4010;42.698;23.124;2024-03-08T01:25:10;118349.16;;;-140.64;100.00
7930;BME280;4010;42.698;23.124;2024-03-08T01:27:37;118349.16;;;-140.64;100.00
7930;BME280;4010;42.698;23.124;2024-03-08T01:30:04;118349.16;;;-140.64;100.00
7930;BME280;4010;42.698;23.124;2024-03-08T01:32:32;118349.16;;;-140.64;100.00
7930;BME280;4010;42.698;23.124;2024-03-08T01:34:59;118349.16;;;-140.64;100.00
7930;BME280;4010;42.698;23.124;2024-03-08T01:37:26;118349.16;;;-140.64;100.00
7930;BME280;4010;42.698;23.124;2024-03-08T01:39:54;118349.16;;;-140.64;100.00
7930;BME280;4010;42.698;23.124;2024-03-08T01:42:21;118349.16;;;-140.64;100.00
7930;BME280;4010;42.698;23.124;2024-03-08T01:44:48;118349.16;;;-140.64;100.00
7930;BME280;4010;42.698;23.124;2024-03-08T01:47:15;118349.16;;;-140.64;100.00
7930;BME280;4010;42.698;23.124;2024-03-08T01:49:43;118349.16;;;-140.64;100.00
7930;BME280;4010;42.698;23.124;2024-03-08T01:52:10;118349.16;;;-140.64;99.96
7930;BME280;4010;42.698;23.124;2024-03-08T01:54:37;118349.16;;;-140.64;99.62
7930;BME280;4010;42.698;23.124;2024-03-08T01:57:06;118349.16;;;-140.64;100.00
7930;BME280;4010;42.698;23.124;2024-03-08T01:59:33;118349.16;;;-140.64;100.00
7930;BME280;4010;42.698;23.124;2024-03-08T02:02:01;118349.16;;;-140.64;100.00
7930;BME280;4010;42.698;23.124;2024-03-08T02:04:28;118349.16;;;-140.64;100.00
7930;BME280;4010;42.698;23.124;2024-03-08T02:06:57;118349.16;;;-140.64;100.00
7930;BME280;4010;42.698;23.124;2024-03-08T02:09:24;118349.16;;;-140.64;100.00
7930;BME280;4010;42.698;23.124;2024-03-08T02:11:51;118349.16;;;-140.64;100.00
7930;BME280;4010;42.698;23.124;2024-03-08T02:14:20;118349.16;;;-140.64;100.00
7930;BME280;4010;42.698;23.124;2024-03-08T02:16:46;118349.16;;;-140.64;99.33
7930;BME280;4010;42.698;23.124;2024-03-08T02:19:13;118349.16;;;-140.64;98.78
7930;BME280;4010;42.698;23.124;2024-03-08T02:21:41;118349.16;;;-140.64;98.91
7930;BME280;4010;42.698;23.124;2024-03-08T02:24:08;118349.16;;;-140.64;99.41
7930;BME280;4010;42.698;23.124;2024-03-08T02:26:35;118349.16;;;-140.64;99.55
7930;BME280;4010;42.698;23.124;2024-03-08T02:29:02;118349.16;;;-140.64;99.29
7930;BME280;4010;42.698;23.124;2024-03-08T02:31:30;118349.16;;;-140.64;99.28
7930;BME280;4010;42.698;23.124;2024-03-08T02:33:57;118349.16;;;-140.64;99.60
7930;BME280;4010;42.698;23.124;2024-03-08T02:36:25;118349.16;;;-140.64;99.95
7930;BME280;4010;42.698;23.124;2024-03-08T02:38:53;118349.16;;;-140.64;99.74
7930;BME280;4010;42.698;23.124;2024-03-08T02:41:20;118349.16;;;-140.64;99.77
7930;BME280;4010;42.698;23.124;2024-03-08T02:43:48;118349.16;;;-140.64;99.61
7930;BME280;4010;42.698;23.124;2024-03-08T02:46:15;118349.16;;;-140.64;100.00
7930;BME280;4010;42.698;23.124;2024-03-08T02:48:42;118349.16;;;-140.64;100.00
7930;BME280;4010;42.698;23.124;2024-03-08T02:51:09;118349.16;;;-140.64;100.00
7930;BME280;4010;42.698;23.124;2024-03-08T02:53:36;118349.16;;;-140.64;100.00
7930;BME280;4010;42.698;23.124;2024-03-08T02:56:04;118349.16;;;-140.64;99.93
7930;BME280;4010;42.698;23.124;2024-03-08T02:58:33;118349.16;;;-140.64;100.00
7930;BME280;4010;42.698;23.124;2024-03-08T03:01:00;118349.16;;;-140.64;100.00
7930;BME280;4010;42.698;23.124;2024-03-08T03:03:27;118349.16;;;-140.64;100.00
7930;BME280;4010;42.698;23.124;2024-03-08T03:05:53;118349.16;;;-140.64;100.00
7930;BME280;4010;42.698;23.124;2024-03-08T03:08:21;118349.16;;;-140.64;99.94
7930;BME280;4010;42.698;23.124;2024-03-08T03:10:49;118349.16;;;-140.64;100.00
7930;BME280;4010;42.698;23.124;2024-03-08T03:13:17;118349.16;;;-140.64;99.67
7930;BME280;4010;42.698;23.124;2024-03-08T03:15:46;118349.16;;;-140.64;99.84
7930;BME280;4010;42.698;23.124;2024-03-08T03:18:13;118349.16;;;-140.64;99.79
7930;BME280;4010;42.698;23.124;2024-03-08T03:20:40;118349.16;;;-140.64;100.00
7930;BME280;4010;42.698;23.124;2024-03-08T03:23:08;118349.16;;;-140.64;99.98
7930;BME280;4010;42.698;23.124;2024-03-08T03:25:35;118349.16;;;-140.64;99.25
7930;BME280;4010;42.698;23.124;2024-03-08T03:28:04;118349.16;;;-140.64;98.78
7930;BME280;4010;42.698;23.124;2024-03-08T03:30:34;118349.16;;;-140.64;97.92
7930;BME280;4010;42.698;23.124;2024-03-08T03:33:01;118349.16;;;-140.64;97.19
7930;BME280;4010;42.698;23.124;2024-03-08T03:35:28;118349.16;;;-140.64;97.04
7930;BME280;4010;42.698;23.124;2024-03-08T03:37:55;118349.16;;;-140.64;97.42
7930;BME280;4010;42.698;23.124;2024-03-08T03:40:32;118349.16;;;-140.64;97.30
7930;BME280;4010;42.698;23.124;2024-03-08T03:42:59;118349.16;;;-140.64;98.05
7930;BME280;4010;42.698;23.124;2024-03-08T03:45:26;118349.16;;;-140.64;98.48
7930;BME280;4010;42.698;23.124;2024-03-08T03:47:54;118349.16;;;-140.64;98.99
7930;BME280;4010;42.698;23.124;2024-03-08T03:50:21;118349.16;;;-140.64;99.28
7930;BME280;4010;42.698;23.124;2024-03-08T03:52:49;118349.16;;;-140.64;99.63
7930;BME280;4010;42.698;23.124;2024-03-08T03:55:16;118349.16;;;-140.64;99.60
7930;BME280;4010;42.698;23.124;2024-03-08T03:57:43;118349.16;;;-140.64;99.68
7930;BME280;4010;42.698;23.124;2024-03-08T04:00:11;118349.16;;;-140.64;99.93
7930;BME280;4010;42.698;23.124;2024-03-08T04:02:38;118349.16;;;-140.64;100.00
7930;BME280;4010;42.698;23.124;2024-03-08T04:05:08;118349.16;;;-140.64;100.00
7930;BME280;4010;42.698;23.124;2024-03-08T04:07:36;118349.16;;;-140.64;99.60
7930;BME280;4010;42.698;23.124;2024-03-08T04:10:03;118349.16;;;-140.64;99.91
7930;BME280;4010;42.698;23.124;2024-03-08T04:12:31;118349.16;;;-140.64;99.84
7930;BME280;4010;42.698;23.124;2024-03-08T04:14:58;118349.16;;;-140.64;99.98
7930;BME280;4010;42.698;23.124;2024-03-08T04:17:24;118349.16;;;-140.64;99.90
7930;BME280;4010;42.698;23.124;2024-03-08T04:19:51;118349.16;;;-140.64;100.00
7930;BME280;4010;42.698;23.124;2024-03-08T04:22:20;118349.16;;;-140.64;100.00
7930;BME280;4010;42.698;23.124;2024-03-08T04:24:46;118349.16;;;-140.64;100.00
7930;BME280;4010;42.698;23.124;2024-03-08T04:27:13;118349.16;;;-140.64;100.00
7930;BME280;4010;42.698;23.124;2024-03-08T04:29:40;118349.16;;;-140.64;100.00
7930;BME280;4010;42.698;23.124;2024-03-08T04:32:09;118349.16;;;-140.64;100.00
7930;BME280;4010;42.698;23.124;2024-03-08T04:34:35;118349.16;;;-140.64;100.00
7930;BME280;4010;42.698;23.124;2024-03-08T04:37:02;118349.16;;;-140.64;100.00
7930;BME280;4010;42.698;23.124;2024-03-08T04:39:31;118349.16;;;-140.64;100.00
7930;BME280;4010;42.698;23.124;2024-03-08T04:42:01;118349.16;;;-140.64;100.00
7930;BME280;4010;42.698;23.124;2024-03-08T04:44:29;118349.16;;;-140.64;100.00
7930;BME280;4010;42.698;23.124;2024-03-08T04:46:57;118349.16;;;-140.64;100.00
7930;BME280;4010;42.698;23.124;2024-03-08T04:49:23;118349.16;;;-140.64;100.00
7930;BME280;4010;42.698;23.124;2024-03-08T04:51:50;118349.16;;;-140.64;100.00
7930;BME280;4010;42.698;23.124;2024-03-08T04:54:17;118349.16;;;-140.64;100.00
7930;BME280;4010;42.698;23.124;2024-03-08T04:56:45;118349.16;;;-140.64;100.00
7930;BME280;4010;42.698;23.124;2024-03-08T04:59:12;118349.16;;;-140.64;100.00
7930;BME280;4010;42.698;23.124;2024-03-08T05:01:39;118349.16;;;-140.64;100.00
7930;BME280;4010;42.698;23.124;2024-03-08T05:04:05;118349.16;;;-140.64;100.00
7930;BME280;4010;42.698;23.124;2024-03-08T05:06:32;118349.16;;;-140.64;100.00
7930;BME280;4010;42.698;23.124;2024-03-08T05:08:59;118349.16;;;-140.64;100.00
7930;BME280;4010;42.698;23.124;2024-03-08T05:11:25;118349.16;;;-140.64;100.00
7930;BME280;4010;42.698;23.124;2024-03-08T05:13:53;118349.16;;;-140.64;100.00
7930;BME280;4010;42.698;23.124;2024-03-08T05:16:21;118349.16;;;-140.64;100.00
7930;BME280;4010;42.698;23.124;2024-03-08T05:18:49;118349.16;;;-140.64;100.00
7930;BME280;4010;42.698;23.124;2024-03-08T05:21:16;118349.16;;;-140.64;100.00
7930;BME280;4010;42.698;23.124;2024-03-08T05:23:45;118349.16;;;-140.64;99.76
7930;BME280;4010;42.698;23.124;2024-03-08T05:26:12;118349.16;;;-140.64;99.33
7930;BME280;4010;42.698;23.124;2024-03-08T05:28:39;118349.16;;;-140.64;99.07
7930;BME280;4010;42.698;23.124;2024-03-08T05:31:07;118349.16;;;-140.64;98.98
7930;BME280;4010;42.698;23.124;2024-03-08T05:33:34;118349.16;;;-140.64;98.89
7930;BME280;4010;42.698;23.124;2024-03-08T05:36:01;118349.16;;;-140.64;99.38
7930;BME280;4010;42.698;23.124;2024-03-08T05:38:27;118349.16;;;-140.64;99.11
7930;BME280;4010;42.698;23.124;2024-03-08T05:40:54;118349.16;;;-140.64;98.74
7930;BME280;4010;42.698;23.124;2024-03-08T05:43:21;118349.16;;;-140.64;98.78
7930;BME280;4010;42.698;23.124;2024-03-08T05:45:48;118349.16;;;-140.64;98.77
7930;BME280;4010;42.698;23.124;2024-03-08T05:48:16;118349.16;;;-140.64;98.88
7930;BME280;4010;42.698;23.124;2024-03-08T05:50:44;118349.16;;;-140.64;98.28
7930;BME280;4010;42.698;23.124;2024-03-08T05:53:10;118349.16;;;-140.64;98.06
7930;BME280;4010;42.698;23.124;2024-03-08T05:55:37;118349.16;;;-140.64;97.49
7930;BME280;4010;42.698;23.124;2024-03-08T05:58:04;118349.16;;;-140.64;97.34
7930;BME280;4010;42.698;23.124;2024-03-08T06:00:33;118349.16;;;-140.64;97.40
7930;BME280;4010;42.698;23.124;2024-03-08T06:03:02;118349.16;;;-140.64;97.70
7930;BME280;4010;42.698;23.124;2024-03-08T06:05:30;118349.16;;;-140.64;97.53
7930;BME280;4010;42.698;23.124;2024-03-08T06:07:56;118349.16;;;-140.64;96.60
7930;BME280;4010;42.698;23.124;2024-03-08T06:10:23;118349.16;;;-140.64;97.14
7930;BME280;4010;42.698;23.124;2024-03-08T06:12:50;118349.16;;;-140.64;96.87
7930;BME280;4010;42.698;23.124;2024-03-08T06:15:17;118349.16;;;-140.64;96.71
7930;BME280;4010;42.698;23.124;2024-03-08T06:17:46;118349.16;;;-140.64;96.81
7930;BME280;4010;42.698;23.124;2024-03-08T06:20:13;118349.16;;;-140.64;96.96
7930;BME280;4010;42.698;23.124;2024-03-08T06:22:41;118349.16;;;-140.64;96.97
7930;BME280;4010;42.698;23.124;2024-03-08T06:25:08;118349.16;;;-140.64;96.64
7930;BME280;4010;42.698;23.124;2024-03-08T06:27:36;118349.16;;;-140.64;95.83
7930;BME280;4010;42.698;23.124;2024-03-08T06:30:03;118349.16;;;-140.64;95.55
7930;BME280;4010;42.698;23.124;2024-03-08T06:32:31;118349.16;;;-140.64;95.64
7930;BME280;4010;42.698;23.124;2024-03-08T06:35:01;118349.16;;;-140.64;95.67
7930;BME280;4010;42.698;23.124;2024-03-08T06:37:27;118349.16;;;-140.64;95.23
7930;BME280;4010;42.698;23.124;2024-03-08T06:39:55;118349.16;;;-140.64;95.62
7930;BME280;4010;42.698;23.124;2024-03-08T06:42:22;118349.16;;;-140.64;95.40
7930;BME280;4010;42.698;23.124;2024-03-08T06:44:49;118349.16;;;-140.64;95.66
7930;BME280;4010;42.698;23.124;2024-03-08T06:47:15;118349.16;;;-140.64;95.15
7930;BME280;4010;42.698;23.124;2024-03-08T06:49:42;118349.16;;;-140.64;94.54
7930;BME280;4010;42.698;23.124;2024-03-08T06:52:09;118349.16;;;-140.64;94.85
7930;BME280;4010;42.698;23.124;2024-03-08T06:54:36;118349.16;;;-140.64;93.57
7930;BME280;4010;42.698;23.124;2024-03-08T06:57:05;118349.16;;;-140.64;93.68
7930;BME280;4010;42.698;23.124;2024-03-08T06:59:31;118349.16;;;-140.64;93.26
7930;BME280;4010;42.698;23.124;2024-03-08T07:02:01;118349.16;;;-140.64;93.49
7930;BME280;4010;42.698;23.124;2024-03-08T07:04:27;118349.16;;;-140.64;93.80
7930;BME280;4010;42.698;23.124;2024-03-08T07:06:55;118349.16;;;-140.64;94.37
7930;BME280;4010;42.698;23.124;2024-03-08T07:09:23;118349.16;;;-140.64;94.30
7930;BME280;4010;42.698;23.124;2024-03-08T07:11:49;118349.16;;;-140.64;93.32
7930;BME280;4010;42.698;23.124;2024-03-08T07:14:21;118349.16;;;-140.64;93.45
7930;BME280;4010;42.698;23.124;2024-03-08T07:16:48;118349.16;;;-140.64;93.38
7930;BME280;4010;42.698;23.124;2024-03-08T07:19:15;118349.16;;;-140.64;93.90
7930;BME280;4010;42.698;23.124;2024-03-08T07:21:42;118349.16;;;-140.64;93.39
7930;BME280;4010;42.698;23.124;2024-03-08T07:24:09;118349.16;;;-140.64;92.38
7930;BME280;4010;42.698;23.124;2024-03-08T07:26:53;118349.16;;;-140.64;92.63
7930;BME280;4010;42.698;23.124;2024-03-08T07:29:22;118349.16;;;-140.64;91.80
7930;BME280;4010;42.698;23.124;2024-03-08T07:31:49;118349.16;;;-140.64;92.75
7930;BME280;4010;42.698;23.124;2024-03-08T07:34:26;118349.16;;;-140.64;92.10
7930;BME280;4010;42.698;23.124;2024-03-08T07:36:55;118349.16;;;-140.64;91.66
7930;BME280;4010;42.698;23.124;2024-03-08T07:39:22;118349.16;;;-140.64;91.77
7930;BME280;4010;42.698;23.124;2024-03-08T07:41:49;118349.16;;;-140.64;92.12
7930;BME280;4010;42.698;23.124;2024-03-08T07:44:17;118349.16;;;-140.64;90.35
7930;BME280;4010;42.698;23.124;2024-03-08T07:46:45;118349.16;;;-140.64;90.05
7930;BME280;4010;42.698;23.124;2024-03-08T07:49:12;118349.16;;;-140.64;90.74
7930;BME280;4010;42.698;23.124;2024-03-08T07:51:40;118349.16;;;-140.64;90.98
7930;BME280;4010;42.698;23.124;2024-03-08T07:54:07;118349.16;;;-140.64;89.49
7930;BME280;4010;42.698;23.124;2024-03-08T07:56:34;118349.16;;;-140.64;90.99
7930;BME280;4010;42.698;23.124;2024-03-08T07:59:01;118349.16;;;-140.64;90.83
7930;BME280;4010;42.698;23.124;2024-03-08T08:01:29;118349.16;;;-140.64;91.13
7930;BME280;4010;42.698;23.124;2024-03-08T08:03:58;118349.16;;;-140.64;89.94
7930;BME280;4010;42.698;23.124;2024-03-08T08:06:25;118349.16;;;-140.64;89.99
7930;BME280;4010;42.698;23.124;2024-03-08T08:08:51;118349.16;;;-140.64;91.48
7930;BME280;4010;42.698;23.124;2024-03-08T08:11:18;118349.16;;;-140.64;91.12
7930;BME280;4010;42.698;23.124;2024-03-08T08:13:45;118349.16;;;-140.64;90.62
7930;BME280;4010;42.698;23.124;2024-03-08T08:16:12;118349.16;;;-140.64;90.57
7930;BME280;4010;42.698;23.124;2024-03-08T08:18:39;118349.16;;;-140.64;91.51
7930;BME280;4010;42.698;23.124;2024-03-08T08:21:07;118349.16;;;-140.64;90.03
7930;BME280;4010;42.698;23.124;2024-03-08T08:23:34;118349.16;;;-140.64;89.45
7930;BME280;4010;42.698;23.124;2024-03-08T08:26:01;118349.16;;;-140.64;87.94
7930;BME280;4010;42.698;23.124;2024-03-08T08:28:28;118349.16;;;-140.64;88.84
7930;BME280;4010;42.698;23.124;2024-03-08T08:30:56;118349.16;;;-140.64;87.15
7930;BME280;4010;42.698;23.124;2024-03-08T08:33:25;118349.16;;;-140.64;86.92
7930;BME280;4010;42.698;23.124;2024-03-08T08:35:52;118349.16;;;-140.64;84.67
7930;BME280;4010;42.698;23.124;2024-03-08T08:38:20;118349.16;;;-140.64;83.77
7930;BME280;4010;42.698;23.124;2024-03-08T08:40:48;118349.16;;;-140.64;82.64
7930;BME280;4010;42.698;23.124;2024-03-08T08:43:15;118349.16;;;-140.64;81.09
7930;BME280;4010;42.698;23.124;2024-03-08T08:45:42;118349.16;;;-140.64;81.25
7930;BME280;4010;42.698;23.124;2024-03-08T08:48:08;118349.16;;;-140.64;81.64
7930;BME280;4010;42.698;23.124;2024-03-08T08:50:36;118349.16;;;-140.64;80.85
7930;BME280;4010;42.698;23.124;2024-03-08T08:53:03;118349.16;;;-140.64;81.42
7930;BME280;4010;42.698;23.124;2024-03-08T08:55:33;118349.16;;;-140.64;80.20
7930;BME280;4010;42.698;23.124;2024-03-08T08:58:01;118349.16;;;-140.64;80.97
7930;BME280;4010;42.698;23.124;2024-03-08T09:00:28;118349.16;;;-140.64;81.60
7930;BME280;4010;42.698;23.124;2024-03-08T09:02:56;118349.16;;;-140.64;82.89
7930;BME280;4010;42.698;23.124;2024-03-08T09:05:24;118349.16;;;-140.64;81.89
7930;BME280;4010;42.698;23.124;2024-03-08T09:07:51;118349.16;;;-140.64;81.55
7930;BME280;4010;42.698;23.124;2024-03-08T09:10:18;118349.16;;;-140.64;80.07
7930;BME280;4010;42.698;23.124;2024-03-08T09:12:46;118349.16;;;-140.64;79.00
7930;BME280;4010;42.698;23.124;2024-03-08T09:15:13;118349.16;;;-140.64;79.54
7930;BME280;4010;42.698;23.124;2024-03-08T09:17:40;118349.16;;;-140.64;78.81
7930;BME280;4010;42.698;23.124;2024-03-08T09:20:10;118349.16;;;-140.64;78.11
7930;BME280;4010;42.698;23.124;2024-03-08T09:22:40;118349.16;;;-140.64;79.64
7930;BME280;4010;42.698;23.124;2024-03-08T09:25:07;118349.16;;;-140.64;78.13
7930;BME280;4010;42.698;23.124;2024-03-08T09:27:35;118349.16;;;-140.64;76.30
7930;BME280;4010;42.698;23.124;2024-03-08T09:30:03;118349.16;;;-140.64;76.93
7930;BME280;4010;42.698;23.124;2024-03-08T09:32:32;118349.16;;;-140.64;77.99
7930;BME280;4010;42.698;23.124;2024-03-08T09:34:58;118349.16;;;-140.64;77.59
7930;BME280;4010;42.698;23.124;2024-03-08T09:37:26;118349.16;;;-140.64;77.90
7930;BME280;4010;42.698;23.124;2024-03-08T09:39:53;118349.16;;;-140.64;78.70
7930;BME280;4010;42.698;23.124;2024-03-08T09:42:19;118349.16;;;-140.64;78.13
7930;BME280;4010;42.698;23.124;2024-03-08T09:44:46;118349.16;;;-140.64;80.06
7930;BME280;4010;42.698;23.124;2024-03-08T09:47:15;118349.16;;;-140.64;78.49
7930;BME280;4010;42.698;23.124;2024-03-08T09:49:42;118349.16;;;-140.64;78.66
7930;BME280;4010;42.698;23.124;2024-03-08T09:52:09;118349.16;;;-140.64;79.35
7930;BME280;4010;42.698;23.124;2024-03-08T09:54:37;118349.16;;;-140.64;78.29
7930;BME280;4010;42.698;23.124;2024-03-08T09:57:04;118349.16;;;-140.64;78.89
7930;BME280;4010;42.698;23.124;2024-03-08T09:59:33;118349.16;;;-140.64;76.13
7930;BME280;4010;42.698;23.124;2024-03-08T10:02:15;118349.16;;;-140.64;76.45
7930;BME280;4010;42.698;23.124;2024-03-08T10:04:43;118349.16;;;-140.64;76.85
7930;BME280;4010;42.698;23.124;2024-03-08T10:07:11;118349.16;;;-140.64;74.82
7930;BME280;4010;42.698;23.124;2024-03-08T10:09:39;118349.16;;;-140.64;77.46
7930;BME280;4010;42.698;23.124;2024-03-08T10:12:08;118349.16;;;-140.64;77.77
7930;BME280;4010;42.698;23.124;2024-03-08T10:14:39;118349.16;;;-140.64;70.56
7930;BME280;4010;42.698;23.124;2024-03-08T10:17:07;118349.16;;;-140.64;71.51
7930;BME280;4010;42.698;23.124;2024-03-08T10:19:35;118349.16;;;-140.64;71.22
7930;BME280;4010;42.698;23.124;2024-03-08T10:22:02;118349.16;;;-140.64;71.33
7930;BME280;4010;42.698;23.124;2024-03-08T10:24:30;118349.16;;;-140.64;72.28
7930;BME280;4010;42.698;23.124;2024-03-08T10:26:59;118349.16;;;-140.64;71.69
7930;BME280;4010;42.698;23.124;2024-03-08T10:29:27;118349.16;;;-140.64;73.56
7930;BME280;4010;42.698;23.124;2024-03-08T10:31:54;118349.16;;;-140.64;73.61
7930;BME280;4010;42.698;23.124;2024-03-08T10:34:21;118349.16;;;-140.64;74.81
7930;BME280;4010;42.698;23.124;2024-03-08T10:36:50;118349.16;;;-140.64;74.89
7930;BME280;4010;42.698;23.124;2024-03-08T10:39:21;118349.16;;;-140.64;73.54
7930;BME280;4010;42.698;23.124;2024-03-08T10:41:53;118349.16;;;-140.64;74.00
7930;BME280;4010;42.698;23.124;2024-03-08T10:44:40;118349.16;;;-140.64;74.11
7930;BME280;4010;42.698;23.124;2024-03-08T10:47:15;118349.16;;;-140.64;70.08
7930;BME280;4010;42.698;23.124;2024-03-08T10:49:51;118349.16;;;-140.64;66.15
7930;BME280;4010;42.698;23.124;2024-03-08T10:52:20;118349.16;;;-140.64;63.92
7930;BME280;4010;42.698;23.124;2024-03-08T10:54:48;118349.16;;;-140.64;64.34
7930;BME280;4010;42.698;23.124;2024-03-08T10:57:18;118349.16;;;-140.64;72.10
7930;BME280;4010;42.698;23.124;2024-03-08T10:59:47;118349.16;;;-140.64;69.47
7930;BME280;4010;42.698;23.124;2024-03-08T11:02:16;118349.16;;;-140.64;60.96
7930;BME280;4010;42.698;23.124;2024-03-08T11:04:46;118349.16;;;-140.64;59.64
7930;BME280;4010;42.698;23.124;2024-03-08T11:07:12;118349.16;;;-140.64;66.54
7930;BME280;4010;42.698;23.124;2024-03-08T11:09:44;118349.16;;;-140.64;64.63
7930;BME280;4010;42.698;23.124;2024-03-08T11:12:24;118349.16;;;-140.64;65.49
7930;BME280;4010;42.698;23.124;2024-03-08T11:14:55;118349.16;;;-140.64;61.96
7930;BME280;4010;42.698;23.124;2024-03-08T11:17:45;118349.16;;;-140.64;64.70
7930;BME280;4010;42.698;23.124;2024-03-08T11:20:14;118349.16;;;-140.64;62.42
7930;BME280;4010;42.698;23.124;2024-03-08T11:22:42;118349.16;;;-140.64;68.77
7930;BME280;4010;42.698;23.124;2024-03-08T11:25:37;118349.16;;;-140.64;64.44
7930;BME280;4010;42.698;23.124;2024-03-08T11:28:10;118349.16;;;-140.64;64.44
7930;BME280;4010;42.698;23.124;2024-03-08T11:30:42;118349.16;;;-140.64;62.15
7930;BME280;4010;42.698;23.124;2024-03-08T11:33:11;118349.16;;;-140.64;61.89
7930;BME280;4010;42.698;23.124;2024-03-08T11:35:39;118349.16;;;-140.64;60.64
7930;BME280;4010;42.698;23.124;2024-03-08T11:38:07;118349.16;;;-140.64;62.07
7930;BME280;4010;42.698;23.124;2024-03-08T11:40:36;118349.16;;;-140.64;61.39
7930;BME280;4010;42.698;23.124;2024-03-08T11:43:05;118349.16;;;-140.64;61.10
7930;BME280;4010;42.698;23.124;2024-03-08T11:45:33;118349.16;;;-140.64;62.51
7930;BME280;4010;42.698;23.124;2024-03-08T11:48:01;118349.16;;;-140.64;60.28
7930;BME280;4010;42.698;23.124;2024-03-08T11:50:29;118349.16;;;-140.64;61.61
7930;BME280;4010;42.698;23.124;2024-03-08T11:53:00;118349.16;;;-140.64;61.31
7930;BME280;4010;42.698;23.124;2024-03-08T11:55:27;118349.16;;;-140.64;57.91
7930;BME280;4010;42.698;23.124;2024-03-08T11:58:01;118349.16;;;-140.64;58.40
7930;BME280;4010;42.698;23.124;2024-03-08T12:00:28;118349.16;;;-140.64;59.46
7930;BME280;4010;42.698;23.124;2024-03-08T12:03:04;118349.16;;;-140.64;58.90
7930;BME280;4010;42.698;23.124;2024-03-08T12:05:32;118349.16;;;-140.64;59.11
7930;BME280;4010;42.698;23.124;2024-03-08T12:08:00;118349.16;;;-140.64;60.97
7930;BME280;4010;42.698;23.124;2024-03-08T12:10:27;118349.16;;;-140.64;62.05
7930;BME280;4010;42.698;23.124;2024-03-08T12:12:55;118349.16;;;-140.64;62.13
7930;BME280;4010;42.698;23.124;2024-03-08T12:15:26;118349.16;;;-140.64;59.87
7930;BME280;4010;42.698;23.124;2024-03-08T12:17:55;118349.16;;;-140.64;62.66
7930;BME280;4010;42.698;23.124;2024-03-08T12:20:23;118349.16;;;-140.64;58.71
7930;BME280;4010;42.698;23.124;2024-03-08T12:22:51;118349.16;;;-140.64;60.41
7930;BME280;4010;42.698;23.124;2024-03-08T12:25:19;118349.16;;;-140.64;61.31
7930;BME280;4010;42.698;23.124;2024-03-08T12:27:46;118349.16;;;-140.64;60.91
7930;BME280;4010;42.698;23.124;2024-03-08T12:30:18;118349.16;;;-140.64;61.72
7930;BME280;4010;42.698;23.124;2024-03-08T12:32:51;118349.16;;;-140.64;62.31
7930;BME280;4010;42.698;23.124;2024-03-08T12:35:20;118349.16;;;-140.64;65.16
7930;BME280;4010;42.698;23.124;2024-03-08T12:37:48;118349.16;;;-140.64;60.86
7930;BME280;4010;42.698;23.124;2024-03-08T12:40:17;118349.16;;;-140.64;60.89
7930;BME280;4010;42.698;23.124;2024-03-08T12:42:44;118349.16;;;-140.64;58.02